Time;durP1;ratioP1;P1;durP2;ratioP2;P2;SDS_P1;SDS_P2;PMS_P1;PMS_P2;Temp;Humidity;BMP_temperature;BMP_pressure;BME280_temperature;BME280_humidity;BME280_pressure;Samples;Min_cycle;Max_cycle;Signal;HPM_P1;HPM_P2
2021/04/22 00:01:16;;;;;;;5.05;1.80;;;20.00;39.10;;;;;;5038130;28;20026;-49
2021/04/22 00:03:42;;;;;;;4.70;1.98;;;19.90;39.00;;;;;;5038282;28;20029;-49
2021/04/22 00:06:07;;;;;;;8.05;2.13;;;19.90;38.90;;;;;;5038135;28;20025;-50
2021/04/22 00:08:33;;;;;;;5.32;1.70;;;19.90;39.00;;;;;;5037785;28;20391;-48
2021/04/22 00:10:58;;;;;;;7.00;2.05;;;19.90;38.90;;;;;;5037499;28;20025;-53
2021/04/22 00:13:27;;;;;;;9.70;2.13;;;19.90;38.90;;;;;;5037949;28;20435;-51
2021/04/22 00:15:53;;;;;;;3.60;1.27;;;19.90;38.90;;;;;;5037829;28;20052;-51
2021/04/22 00:18:19;;;;;;;6.75;1.52;;;19.90;38.90;;;;;;5037707;28;20064;-47
2021/04/22 00:20:45;;;;;;;8.43;2.17;;;19.90;38.90;;;;;;5037701;28;20029;-49
2021/04/22 00:23:13;;;;;;;6.55;1.88;;;19.90;38.90;;;;;;5037635;28;20072;-51
2021/04/22 00:25:42;;;;;;;4.60;2.00;;;19.90;38.90;;;;;;5037298;28;20048;-49
2021/04/22 00:28:09;;;;;;;4.13;1.52;;;19.90;38.80;;;;;;5037125;28;20427;-50
2021/04/22 00:30:36;;;;;;;5.47;1.70;;;19.80;38.70;;;;;;5037660;28;20029;-51
2021/04/22 00:33:14;;;;;;;6.25;2.03;;;19.90;38.70;;;;;;5037499;28;20087;-51
2021/04/22 00:35:40;;;;;;;6.13;2.03;;;19.80;38.70;;;;;;5037334;28;20040;-50
2021/04/22 00:38:08;;;;;;;5.68;2.17;;;19.80;38.70;;;;;;5037251;28;20021;-48
2021/04/22 00:40:35;;;;;;;6.80;1.52;;;19.80;38.70;;;;;;5020488;28;20348;-50
2021/04/22 00:43:04;;;;;;;5.68;1.73;;;19.80;38.60;;;;;;5037181;28;20112;-46
2021/04/22 00:45:30;;;;;;;4.60;1.60;;;19.80;38.60;;;;;;5037385;28;20022;-48
2021/04/22 00:47:56;;;;;;;5.35;1.70;;;19.80;38.60;;;;;;5036068;28;20040;-48
2021/04/22 00:50:28;;;;;;;4.25;1.65;;;19.80;38.60;;;;;;5036979;28;20112;-50
2021/04/22 00:52:55;;;;;;;9.20;1.92;;;19.80;38.60;;;;;;5037148;28;20351;-49
2021/04/22 00:55:21;;;;;;;6.57;1.55;;;19.80;38.60;;;;;;5037449;28;20087;-50
2021/04/22 00:57:47;;;;;;;4.88;1.67;;;19.70;38.50;;;;;;5036927;28;20052;-48
2021/04/22 01:00:17;;;;;;;3.22;1.60;;;19.70;38.50;;;;;;5036794;28;20455;-48
2021/04/22 01:02:43;;;;;;;4.97;1.55;;;19.80;38.50;;;;;;5036764;28;20029;-49
2021/04/22 01:05:11;;;;;;;3.78;1.70;;;19.70;38.40;;;;;;5036669;28;20337;-51
2021/04/22 01:07:41;;;;;;;3.70;1.48;;;19.70;38.40;;;;;;5036703;28;20030;-48
2021/04/22 01:10:08;;;;;;;3.58;1.25;;;19.70;38.40;;;;;;5036558;28;20448;-50
2021/04/22 01:12:34;;;;;;;6.63;1.77;;;19.70;38.40;;;;;;5036501;28;20079;-48
2021/04/22 01:14:59;;;;;;;4.90;1.73;;;19.70;38.40;;;;;;5036383;28;20460;-47
2021/04/22 01:17:25;;;;;;;7.00;2.00;;;19.70;38.40;;;;;;5019165;28;20360;-49
2021/04/22 01:19:51;;;;;;;7.65;2.13;;;19.70;38.40;;;;;;5036520;28;20036;-51
2021/04/22 01:22:17;;;;;;;4.78;2.20;;;19.70;39.00;;;;;;5036242;28;20021;-48
2021/04/22 01:24:43;;;;;;;5.78;2.03;;;19.70;38.30;;;;;;5036572;28;20106;-48
2021/04/22 01:27:09;;;;;;;4.53;1.77;;;19.60;38.30;;;;;;5036291;28;20027;-50
2021/04/22 01:29:34;;;;;;;5.18;1.90;;;19.60;38.20;;;;;;5036458;28;20025;-46
2021/04/22 01:32:00;;;;;;;4.35;1.63;;;19.60;38.20;;;;;;5036289;28;20034;-46
2021/04/22 01:34:26;;;;;;;5.20;2.05;;;19.60;38.20;;;;;;5036173;28;20017;-47
2021/04/22 01:36:51;;;;;;;6.18;1.80;;;19.60;38.20;;;;;;5036129;28;20040;-50
2021/04/22 01:39:17;;;;;;;6.50;1.80;;;19.60;38.20;;;;;;5036474;28;20026;-48
2021/04/22 01:41:42;;;;;;;5.35;2.08;;;19.60;38.10;;;;;;5036130;28;20021;-48
2021/04/22 01:44:09;;;;;;;4.82;2.00;;;19.60;38.10;;;;;;5036145;28;20033;-45
2021/04/22 01:46:35;;;;;;;3.85;1.92;;;19.60;38.10;;;;;;5036259;28;20099;-48
2021/04/22 01:49:00;;;;;;;4.88;2.15;;;19.60;38.10;;;;;;5035713;28;20387;-48
2021/04/22 01:51:26;;;;;;;6.13;1.83;;;19.60;38.10;;;;;;5035726;28;20037;-50
2021/04/22 01:53:52;;;;;;;5.15;1.73;;;19.60;38.10;;;;;;5036310;28;20424;-46
2021/04/22 01:56:19;;;;;;;4.03;1.50;;;19.50;38.00;;;;;;5036175;28;20036;-47
2021/04/22 01:58:44;;;;;;;4.57;1.58;;;19.50;38.10;;;;;;5035709;28;20025;-49
2021/04/22 02:01:10;;;;;;;3.50;1.33;;;19.50;38.00;;;;;;5035736;28;20040;-45
2021/04/22 02:03:36;;;;;;;4.65;1.70;;;19.50;38.10;;;;;;5035665;28;20075;-49
2021/04/22 02:06:04;;;;;;;8.05;1.67;;;19.50;38.00;;;;;;5035989;28;20091;-49
2021/04/22 02:08:30;;;;;;;4.47;1.90;;;19.50;38.00;;;;;;5035598;28;20018;-46
2021/04/22 02:10:56;;;;;;;5.68;1.73;;;19.50;38.00;;;;;;5035718;28;20065;-52
2021/04/22 02:13:23;;;;;;;4.72;2.08;;;19.40;38.00;;;;;;5035420;28;20080;-49
2021/04/22 02:15:50;;;;;;;10.85;1.92;;;19.40;38.00;;;;;;5035391;28;20025;-50
2021/04/22 02:18:16;;;;;;;6.63;1.80;;;19.40;38.00;;;;;;5035252;28;20112;-47
2021/04/22 02:20:42;;;;;;;4.63;1.98;;;19.40;37.90;;;;;;5035333;28;20029;-45
2021/04/22 02:23:13;;;;;;;5.00;1.80;;;19.50;38.00;;;;;;5035174;28;20356;-46
2021/04/22 02:25:40;;;;;;;5.70;1.80;;;19.40;37.90;;;;;;5035428;28;20061;-48
2021/04/22 02:28:05;;;;;;;6.82;2.30;;;19.40;37.90;;;;;;5035200;28;20022;-45
2021/04/22 02:30:33;;;;;;;5.18;2.00;;;19.40;37.90;;;;;;5035167;28;20115;-46
2021/04/22 02:33:01;;;;;;;5.80;1.83;;;19.40;37.90;;;;;;5034606;28;20045;-47
2021/04/22 02:35:29;;;;;;;6.45;1.45;;;19.40;37.80;;;;;;5035586;28;20061;-45
2021/04/22 02:37:56;;;;;;;5.65;1.83;;;19.40;37.80;;;;;;5034959;28;20041;-45
2021/04/22 02:40:25;;;;;;;6.75;1.90;;;19.40;37.90;;;;;;5035288;28;20037;-49
2021/04/22 02:42:51;;;;;;;10.15;1.95;;;19.40;37.80;;;;;;5035060;28;20018;-47
2021/04/22 02:45:21;;;;;;;3.83;1.60;;;19.40;37.80;;;;;;5034862;28;20049;-48
2021/04/22 02:47:46;;;;;;;4.35;1.83;;;19.40;37.80;;;;;;5035092;28;20108;-48
2021/04/22 02:50:17;;;;;;;4.85;1.73;;;19.30;37.70;;;;;;5034902;28;20179;-46
2021/04/22 02:52:43;;;;;;;5.60;2.03;;;19.30;37.70;;;;;;5035028;28;20048;-46
2021/04/22 02:55:09;;;;;;;4.78;1.85;;;19.30;38.40;;;;;;5034863;28;20387;-48
2021/04/22 02:57:35;;;;;;;6.15;2.10;;;19.30;37.70;;;;;;5034907;28;20025;-46
2021/04/22 03:00:02;;;;;;;5.00;1.60;;;19.30;37.70;;;;;;5034423;28;20092;-45
2021/04/22 03:02:28;;;;;;;5.68;2.15;;;19.30;37.70;;;;;;5035047;28;20424;-50
2021/04/22 03:04:53;;;;;;;4.70;2.00;;;19.30;37.60;;;;;;5034918;28;20021;-47
2021/04/22 03:07:19;;;;;;;4.20;1.48;;;19.30;37.60;;;;;;5034436;28;20031;-47
2021/04/22 03:09:44;;;;;;;7.05;1.88;;;19.30;37.70;;;;;;5035443;28;20053;-45
2021/04/22 03:12:10;;;;;;;6.15;1.85;;;19.30;37.70;;;;;;5038953;28;20051;-44
2021/04/22 03:14:36;;;;;;;4.68;1.80;;;19.30;37.60;;;;;;5038567;28;20045;-45
2021/04/22 03:17:02;;;;;;;4.85;1.65;;;19.30;37.60;;;;;;5039181;28;20029;-44
2021/04/22 03:19:28;;;;;;;5.18;1.80;;;19.30;37.60;;;;;;5038847;28;20079;-49
2021/04/22 03:21:54;;;;;;;5.30;1.58;;;19.30;37.60;;;;;;5038347;28;20104;-47
2021/04/22 03:24:19;;;;;;;6.03;2.03;;;19.30;37.60;;;;;;5038252;28;20053;-47
2021/04/22 03:26:44;;;;;;;5.85;1.42;;;19.20;37.60;;;;;;5038858;28;20029;-44
2021/04/22 03:29:10;;;;;;;4.55;1.67;;;19.20;37.50;;;;;;5038383;28;20039;-45
2021/04/22 03:31:36;;;;;;;5.70;2.00;;;19.20;37.50;;;;;;5038091;28;20452;-48
2021/04/22 03:34:02;;;;;;;6.80;1.90;;;19.20;37.50;;;;;;5038695;28;20025;-45
2021/04/22 03:36:27;;;;;;;3.35;1.70;;;19.20;37.60;;;;;;5038611;28;20064;-47
2021/04/22 03:38:54;;;;;;;4.60;1.80;;;19.20;37.80;;;;;;5038087;28;20119;-45
2021/04/22 03:41:20;;;;;;;5.28;1.60;;;19.20;37.50;;;;;;5038429;28;20372;-45
2021/04/22 03:43:46;;;;;;;4.95;1.48;;;19.10;37.30;;;;;;5038138;28;20029;-48
2021/04/22 03:46:11;;;;;;;5.38;1.95;;;19.10;37.40;;;;;;5038263;28;20029;-48
2021/04/22 03:48:37;;;;;;;5.72;1.80;;;19.20;37.50;;;;;;5038232;28;20025;-46
2021/04/22 03:51:02;;;;;;;6.28;1.85;;;19.10;37.40;;;;;;5038379;28;20411;-50
2021/04/22 03:53:28;;;;;;;4.60;1.83;;;19.10;37.40;;;;;;5038131;28;20341;-45
2021/04/22 03:55:53;;;;;;;6.90;2.17;;;19.10;37.40;;;;;;5038086;28;20033;-47
2021/04/22 03:58:19;;;;;;;5.10;1.77;;;19.10;37.40;;;;;;5037532;28;20356;-48
2021/04/22 04:00:44;;;;;;;3.33;1.52;;;19.10;37.40;;;;;;5038274;28;20025;-47
2021/04/22 04:03:10;;;;;;;4.40;2.05;;;19.10;37.40;;;;;;5038381;28;20116;-45
2021/04/22 04:05:36;;;;;;;5.40;1.65;;;19.10;37.40;;;;;;5037923;28;20381;-49
2021/04/22 04:08:01;;;;;;;4.68;1.70;;;19.10;37.40;;;;;;5037741;28;20025;-47
2021/04/22 04:10:27;;;;;;;8.02;2.35;;;19.10;37.40;;;;;;5037729;28;20029;-46
2021/04/22 04:12:52;;;;;;;7.35;1.70;;;19.10;37.40;;;;;;5037846;28;20144;-48
2021/04/22 04:15:18;;;;;;;3.38;1.60;;;19.00;37.30;;;;;;5037677;28;20029;-48
2021/04/22 04:17:43;;;;;;;4.65;1.92;;;19.10;37.40;;;;;;5037964;28;20033;-45
2021/04/22 04:20:11;;;;;;;7.55;2.03;;;19.00;37.30;;;;;;5037653;28;20036;-47
2021/04/22 04:22:38;;;;;;;3.53;1.67;;;19.00;37.30;;;;;;5037342;28;20037;-45
2021/04/22 04:25:05;;;;;;;4.50;1.77;;;19.00;37.30;;;;;;5037499;28;20360;-49
2021/04/22 04:27:30;;;;;;;5.22;1.40;;;19.00;37.40;;;;;;5037355;28;20112;-49
2021/04/22 04:29:56;;;;;;;6.07;1.95;;;19.00;37.40;;;;;;5037918;28;20427;-48
2021/04/22 04:32:21;;;;;;;3.88;1.50;;;19.00;37.40;;;;;;5037208;28;20136;-47
2021/04/22 04:34:47;;;;;;;3.95;1.58;;;19.00;37.40;;;;;;5037162;28;20035;-45
2021/04/22 04:37:12;;;;;;;5.55;1.90;;;19.00;37.40;;;;;;5037273;28;20107;-47
2021/04/22 04:39:38;;;;;;;5.32;1.90;;;19.00;37.40;;;;;;5037554;28;20506;-47
2021/04/22 04:42:04;;;;;;;4.43;1.83;;;19.00;37.40;;;;;;5037142;28;20435;-47
2021/04/22 04:44:30;;;;;;;3.53;1.58;;;19.00;37.40;;;;;;5037161;28;20064;-48
2021/04/22 04:46:55;;;;;;;5.05;1.85;;;19.00;37.40;;;;;;5037550;28;20026;-46
2021/04/22 04:49:21;;;;;;;5.18;1.98;;;19.00;37.40;;;;;;5036982;28;20025;-47
2021/04/22 04:51:46;;;;;;;7.45;1.92;;;19.00;37.40;;;;;;5037169;28;20436;-48
2021/04/22 04:54:12;;;;;;;3.45;1.42;;;19.00;37.40;;;;;;5037310;28;20320;-46
2021/04/22 04:56:37;;;;;;;7.15;2.00;;;19.00;37.40;;;;;;5036488;28;20032;-47
2021/04/22 04:59:03;;;;;;;4.72;1.40;;;19.00;37.40;;;;;;5036836;28;20490;-46
2021/04/22 05:01:28;;;;;;;3.80;1.45;;;19.00;37.40;;;;;;5036777;28;20451;-46
2021/04/22 05:03:54;;;;;;;3.33;1.55;;;18.90;37.30;;;;;;5036731;28;20387;-50
2021/04/22 05:06:20;;;;;;;5.55;1.75;;;19.00;37.40;;;;;;5036916;28;20030;-45
2021/04/22 05:08:45;;;;;;;6.68;1.60;;;19.00;37.40;;;;;;5036728;28;20025;-48
2021/04/22 05:11:11;;;;;;;3.17;1.10;;;19.00;37.40;;;;;;5036643;28;20029;-48
2021/04/22 05:13:36;;;;;;;1.85;1.00;;;19.00;37.40;;;;;;5036391;28;20029;-49
2021/04/22 05:16:02;;;;;;;3.47;1.35;;;18.90;37.40;;;;;;5036327;28;20102;-47
2021/04/22 05:18:28;;;;;;;5.40;1.20;;;18.90;37.30;;;;;;5036526;28;20026;-47
2021/04/22 05:20:54;;;;;;;7.05;1.48;;;18.90;37.60;;;;;;5036199;28;20443;-51
2021/04/22 05:23:21;;;;;;;4.35;1.63;;;18.90;38.70;;;;;;5036404;28;20077;-44
2021/04/22 05:25:48;;;;;;;8.45;1.50;;;18.90;38.10;;;;;;5036371;28;20022;-44
2021/04/22 05:28:14;;;;;;;9.35;1.77;;;18.90;37.90;;;;;;5036268;28;20034;-46
2021/04/22 05:30:41;;;;;;;6.53;1.77;;;18.90;37.90;;;;;;5036500;28;20125;-45
2021/04/22 05:33:08;;;;;;;9.60;1.42;;;18.90;38.10;;;;;;5035880;28;20013;-46
2021/04/22 05:35:35;;;;;;;5.15;1.73;;;18.90;38.40;;;;;;5036207;28;20096;-44
2021/04/22 05:38:00;;;;;;;6.60;1.50;;;18.90;38.60;;;;;;5036106;28;20036;-44
2021/04/22 05:40:26;;;;;;;4.95;1.35;;;19.00;38.80;;;;;;5018723;28;20356;-46
2021/04/22 05:42:51;;;;;;;4.57;1.40;;;19.00;38.70;;;;;;5035949;28;20033;-44
2021/04/22 05:45:17;;;;;;;5.22;1.25;;;19.10;38.70;;;;;;5036347;28;20026;-46
2021/04/22 05:47:44;;;;;;;9.00;1.88;;;19.10;38.80;;;;;;5035440;28;20026;-45
2021/04/22 05:50:11;;;;;;;8.10;1.73;;;19.10;39.00;;;;;;5035881;28;20060;-45
2021/04/22 05:52:36;;;;;;;4.43;1.90;;;19.20;39.10;;;;;;5035708;28;20355;-47
2021/04/22 05:55:04;;;;;;;4.28;1.50;;;19.20;39.20;;;;;;5035759;28;20029;-46
2021/04/22 05:57:29;;;;;;;6.03;1.50;;;19.30;39.40;;;;;;5035980;28;20113;-49
2021/04/22 05:59:55;;;;;;;10.68;1.70;;;19.30;39.60;;;;;;5035211;28;20104;-44
2021/04/22 06:02:20;;;;;;;4.68;1.30;;;19.40;39.70;;;;;;5035441;28;20109;-45
2021/04/22 06:04:46;;;;;;;5.68;1.55;;;19.40;39.70;;;;;;5035523;28;20037;-50
2021/04/22 06:07:12;;;;;;;8.80;2.17;;;19.40;39.70;;;;;;5035534;28;20022;-48
2021/04/22 06:09:38;;;;;;;6.93;1.42;;;19.50;40.30;;;;;;5035570;28;20061;-45
2021/04/22 06:12:05;;;;;;;2.83;1.13;;;19.50;39.50;;;;;;5018374;28;20448;-49
2021/04/22 06:14:31;;;;;;;5.28;1.02;;;19.50;39.50;;;;;;5035559;28;20028;-49
2021/04/22 06:16:56;;;;;;;7.20;1.75;;;19.60;39.70;;;;;;5035468;28;20104;-48
2021/04/22 06:19:22;;;;;;;7.68;1.42;;;19.60;39.90;;;;;;5035561;28;20029;-45
2021/04/22 06:21:47;;;;;;;2.45;1.13;;;19.60;40.00;;;;;;5035367;28;20087;-49
2021/04/22 06:24:13;;;;;;;5.47;1.50;;;19.60;40.00;;;;;;5035420;28;20531;-45
2021/04/22 06:26:38;;;;;;;3.40;1.23;;;19.60;40.20;;;;;;5035095;28;20355;-47
2021/04/22 06:29:05;;;;;;;6.15;1.65;;;19.70;40.30;;;;;;5034910;28;20216;-48
2021/04/22 06:31:30;;;;;;;2.60;1.05;;;19.70;39.90;;;;;;5035245;28;20124;-46
2021/04/22 06:33:56;;;;;;;2.67;1.10;;;19.70;39.80;;;;;;5035123;28;20119;-45
2021/04/22 06:36:22;;;;;;;7.50;1.80;;;19.70;39.90;;;;;;5034950;28;20036;-43
2021/04/22 06:38:48;;;;;;;3.67;1.67;;;19.70;38.80;;;;;;5035227;28;20452;-44
2021/04/22 06:41:14;;;;;;;2.85;1.00;;;19.70;39.10;;;;;;5035277;28;20487;-48
2021/04/22 06:43:39;;;;;;;12.18;1.75;;;19.70;39.20;;;;;;5035137;28;20026;-47
2021/04/22 06:46:05;;;;;;;9.85;2.05;;;19.70;39.10;;;;;;5034117;28;20419;-45
2021/04/22 06:48:30;;;;;;;6.68;1.50;;;19.70;39.10;;;;;;5034672;28;20040;-47
2021/04/22 06:50:56;;;;;;;9.18;1.67;;;19.70;38.90;;;;;;5034921;28;20038;-43
2021/04/22 06:53:21;;;;;;;8.88;1.70;;;19.80;38.60;;;;;;5034892;28;20033;-43
2021/04/22 06:55:47;;;;;;;6.10;1.65;;;19.80;38.30;;;;;;5034847;28;20026;-50
2021/04/22 06:58:13;;;;;;;7.15;1.98;;;19.80;38.40;;;;;;5034821;28;20032;-49
2021/04/22 07:00:40;;;;;;;5.53;1.75;;;19.80;39.20;;;;;;5034749;28;20033;-47
2021/04/22 07:03:06;;;;;;;9.60;1.80;;;19.80;38.30;;;;;;5034423;28;20103;-47
2021/04/22 07:05:33;;;;;;;5.38;1.42;;;19.80;38.30;;;;;;5034758;28;20099;-47
2021/04/22 07:07:58;;;;;;;8.50;1.73;;;19.80;38.30;;;;;;5034805;28;20025;-50
2021/04/22 07:10:25;;;;;;;10.27;2.05;;;19.80;37.60;;;;;;5034820;28;20079;-50
2021/04/22 07:12:50;;;;;;;11.65;1.92;;;19.90;38.40;;;;;;5034860;28;20053;-50
2021/04/22 07:15:16;;;;;;;4.22;1.58;;;19.90;38.80;;;;;;5034392;28;20441;-50
2021/04/22 07:17:42;;;;;;;5.38;1.35;;;19.90;39.10;;;;;;5034644;28;20339;-49
2021/04/22 07:20:12;;;;;;;6.28;1.80;;;19.90;39.00;;;;;;5034709;28;20032;-51
2021/04/22 07:22:39;;;;;;;7.68;1.52;;;20.00;39.00;;;;;;5034942;28;20021;-48
2021/04/22 07:25:07;;;;;;;6.93;1.50;;;20.10;39.30;;;;;;5034451;28;20064;-51
2021/04/22 07:27:33;;;;;;;6.38;1.63;;;20.10;39.00;;;;;;5034468;28;20026;-47
2021/04/22 07:29:58;;;;;;;7.13;1.67;;;20.00;39.00;;;;;;5034615;28;20022;-51
2021/04/22 07:32:24;;;;;;;7.35;1.83;;;20.10;39.20;;;;;;5034370;28;20034;-48
2021/04/22 07:34:49;;;;;;;5.30;1.58;;;20.10;39.30;;;;;;5034551;28;20356;-48
2021/04/22 07:37:17;;;;;;;7.82;1.45;;;20.10;38.80;;;;;;5034391;28;20350;-45
2021/04/22 07:39:44;;;;;;;8.23;1.70;;;20.10;38.80;;;;;;5034505;28;20395;-47
2021/04/22 07:42:10;;;;;;;6.15;1.70;;;20.20;39.00;;;;;;5016955;28;20083;-50
2021/04/22 07:44:36;;;;;;;5.82;1.60;;;20.20;39.40;;;;;;5034461;28;20041;-49
2021/04/22 07:47:03;;;;;;;3.63;1.17;;;20.20;39.20;;;;;;5016975;28;20038;-48
2021/04/22 07:49:28;;;;;;;4.50;1.23;;;20.20;39.40;;;;;;5034213;28;20032;-49
2021/04/22 07:51:55;;;;;;;3.20;1.40;;;20.20;39.50;;;;;;5034267;28;20360;-50
2021/04/22 07:54:20;;;;;;;5.13;1.55;;;20.30;40.00;;;;;;5034571;28;20455;-47
2021/04/22 07:56:46;;;;;;;4.22;1.27;;;20.20;39.80;;;;;;5036030;28;20021;-50
2021/04/22 07:59:11;;;;;;;5.55;1.30;;;20.20;39.60;;;;;;5037640;28;20444;-49
2021/04/22 08:01:37;;;;;;;6.47;1.30;;;20.20;39.20;;;;;;5037917;28;20028;-49
2021/04/22 08:04:04;;;;;;;8.65;1.90;;;20.30;38.60;;;;;;5038289;28;20030;-55
2021/04/22 08:06:29;;;;;;;7.45;1.60;;;20.30;37.70;;;;;;5037797;28;20045;-49
2021/04/22 08:08:55;;;;;;;4.47;1.73;;;20.20;38.20;;;;;;5037867;28;20096;-49
2021/04/22 08:11:21;;;;;;;6.05;1.55;;;20.20;38.70;;;;;;5019971;28;20032;-48
2021/04/22 08:13:46;;;;;;;7.28;1.58;;;20.20;38.50;;;;;;5037500;28;20053;-50
2021/04/22 08:16:12;;;;;;;6.38;1.63;;;20.30;38.40;;;;;;5019935;28;20026;-51
2021/04/22 08:18:37;;;;;;;5.35;1.60;;;20.30;38.10;;;;;;5037894;28;20029;-48
2021/04/22 08:21:03;;;;;;;8.27;1.92;;;20.20;38.40;;;;;;5037738;28;20030;-47
2021/04/22 08:23:32;;;;;;;5.30;2.15;;;20.30;38.30;;;;;;5037617;28;20068;-44
2021/04/22 08:26:00;;;;;;;6.68;1.55;;;20.30;37.90;;;;;;5020106;28;20028;-45
2021/04/22 08:28:27;;;;;;;5.65;1.67;;;20.30;37.80;;;;;;5037256;28;20036;-52
2021/04/22 08:30:55;;;;;;;7.95;1.45;;;20.20;37.40;;;;;;5037843;28;20356;-47
2021/04/22 08:33:23;;;;;;;5.05;1.00;;;20.30;38.00;;;;;;5037282;28;20098;-52
2021/04/22 08:35:49;;;;;;;7.47;1.70;;;20.30;38.40;;;;;;5037409;28;20432;-53
2021/04/22 08:38:15;;;;;;;6.28;1.77;;;20.30;38.80;;;;;;5037404;28;20031;-50
2021/04/22 08:40:41;;;;;;;13.85;1.40;;;20.30;39.00;;;;;;5036939;28;20035;-57
2021/04/22 08:43:08;;;;;;;5.95;1.60;;;20.30;38.80;;;;;;5036562;28;20029;-47
2021/04/22 08:45:33;;;;;;;5.95;1.20;;;20.30;38.80;;;;;;5037227;28;20101;-48
2021/04/22 08:48:00;;;;;;;5.07;1.23;;;20.40;38.90;;;;;;5037074;28;20045;-51
2021/04/22 08:50:29;;;;;;;5.47;1.30;;;20.40;39.00;;;;;;5036948;28;20083;-46
2021/04/22 08:52:58;;;;;;;3.20;1.33;;;20.50;39.10;;;;;;5037188;28;20431;-47
2021/04/22 08:55:28;;;;;;;4.47;1.20;;;20.50;39.30;;;;;;5037110;28;20021;-46
2021/04/22 08:57:56;;;;;;;2.72;1.13;;;20.50;39.30;;;;;;5036525;28;20037;-47
2021/04/22 09:00:24;;;;;;;3.15;1.40;;;20.50;39.30;;;;;;5036926;28;20022;-48
2021/04/22 09:02:50;;;;;;;4.82;1.00;;;20.50;39.30;;;;;;5037040;28;20036;-49
2021/04/22 09:05:17;;;;;;;5.15;1.20;;;20.50;39.30;;;;;;5036853;28;20026;-51
2021/04/22 09:07:43;;;;;;;2.75;1.05;;;20.50;39.30;;;;;;5035837;28;20081;-47
2021/04/22 09:10:11;;;;;;;3.38;1.10;;;20.50;39.40;;;;;;5036863;28;20064;-45
2021/04/22 09:12:36;;;;;;;4.90;1.10;;;20.60;39.60;;;;;;5036584;28;20033;-47
2021/04/22 09:15:12;;;;;;;2.53;0.98;;;20.60;39.70;;;;;;5036724;28;20033;-49
2021/04/22 09:17:40;;;;;;;4.95;1.10;;;20.60;39.70;;;;;;5036813;28;20040;-51
2021/04/22 09:20:09;;;;;;;3.70;1.00;;;20.60;39.70;;;;;;5036731;28;20029;-47
2021/04/22 09:22:40;;;;;;;2.00;0.93;;;20.60;39.90;;;;;;5036144;28;20025;-47
2021/04/22 09:25:23;;;;;;;3.33;1.15;;;20.60;39.90;;;;;;5036580;28;20049;-48
2021/04/22 09:27:49;;;;;;;3.17;1.20;;;20.60;39.80;;;;;;5036751;28;20029;-51
2021/04/22 09:30:16;;;;;;;2.83;1.13;;;20.60;39.90;;;;;;5035972;28;20032;-51
2021/04/22 09:32:42;;;;;;;3.75;1.25;;;20.60;40.00;;;;;;5036337;28;20629;-48
2021/04/22 09:35:13;;;;;;;2.25;0.90;;;20.70;40.00;;;;;;5036178;28;20069;-52
2021/04/22 09:37:41;;;;;;;2.67;1.05;;;20.60;39.90;;;;;;5036168;28;20030;-46
2021/04/22 09:40:39;;;;;;;2.03;1.30;;;20.70;40.10;;;;;;5036527;28;20024;-48
2021/04/22 09:43:07;;;;;;;3.25;1.23;;;20.70;40.20;;;;;;5036320;28;20441;-49
2021/04/22 09:45:34;;;;;;;3.05;1.30;;;20.70;40.30;;;;;;5018634;28;20363;-46
2021/04/22 09:48:00;;;;;;;2.85;1.08;;;20.70;40.50;;;;;;5036170;28;20025;-51
2021/04/22 09:50:29;;;;;;;2.33;0.98;;;20.80;40.40;;;;;;5035811;28;20064;-48
2021/04/22 09:52:57;;;;;;;3.17;1.17;;;20.80;40.50;;;;;;5035897;28;20083;-53
2021/04/22 09:55:32;;;;;;;4.57;1.33;;;20.80;40.40;;;;;;5035782;28;20021;-54
2021/04/22 09:57:57;;;;;;;3.70;1.50;;;20.80;40.20;;;;;;5035939;28;20407;-45
2021/04/22 10:00:29;;;;;;;2.75;1.20;;;20.90;40.20;;;;;;5035301;28;20022;-45
2021/04/22 10:02:57;;;;;;;4.22;2.00;;;20.90;40.00;;;;;;5019173;28;20018;-49
2021/04/22 10:05:26;;;;;;;8.88;1.27;;;20.90;40.00;;;;;;5035836;28;20037;-46
2021/04/22 10:08:13;;;;;;;2.67;1.15;;;20.90;39.80;;;;;;5035779;28;20034;-47
2021/04/22 10:10:55;;;;;;;3.85;1.25;;;21.00;39.70;;;;;;5035325;28;20025;-46
2021/04/22 10:13:21;;;;;;;3.97;1.52;;;21.00;39.90;;;;;;5018360;28;20026;-47
2021/04/22 10:15:51;;;;;;;2.92;1.17;;;21.00;40.00;;;;;;5035493;28;20425;-47
2021/04/22 10:18:17;;;;;;;2.72;1.15;;;21.00;39.80;;;;;;5035368;28;20143;-49
2021/04/22 10:20:42;;;;;;;2.85;1.08;;;21.00;39.70;;;;;;5035436;28;20145;-48
2021/04/22 10:23:09;;;;;;;3.20;1.15;;;21.00;39.80;;;;;;5034916;28;20029;-46
2021/04/22 10:25:37;;;;;;;2.42;0.90;;;21.10;39.90;;;;;;5035328;28;20060;-45
2021/04/22 10:28:14;;;;;;;1.98;0.73;;;21.10;40.00;;;;;;5035831;28;20095;-50
2021/04/22 10:30:43;;;;;;;3.15;1.63;;;21.10;40.00;;;;;;5035334;28;20052;-52
2021/04/22 10:33:09;;;;;;;2.20;0.82;;;21.10;40.00;;;;;;5018005;28;20111;-52
2021/04/22 10:35:38;;;;;;;1.60;0.85;;;21.20;40.10;;;;;;5035171;28;20339;-47
2021/04/22 10:38:05;;;;;;;2.13;1.00;;;21.10;40.20;;;;;;5034986;28;20022;-46
2021/04/22 10:40:37;;;;;;;2.15;0.90;;;21.20;40.10;;;;;;5035179;28;20030;-49
2021/04/22 10:43:05;;;;;;;2.42;1.08;;;21.10;40.10;;;;;;5035019;28;20033;-47
2021/04/22 10:45:32;;;;;;;2.47;1.40;;;21.20;40.30;;;;;;5035106;28;20065;-47
2021/04/22 10:47:58;;;;;;;2.30;1.02;;;21.20;40.30;;;;;;5034807;28;20022;-48
2021/04/22 10:50:30;;;;;;;2.95;1.15;;;21.20;40.30;;;;;;5034666;28;20057;-51
2021/04/22 10:52:57;;;;;;;4.57;1.20;;;21.20;40.30;;;;;;5035141;28;20100;-46
2021/04/22 10:55:32;;;;;;;1.73;0.88;;;21.30;40.40;;;;;;5034539;28;20533;-46
2021/04/22 10:58:12;;;;;;;2.15;0.93;;;21.30;40.30;;;;;;5034580;28;20475;-46
2021/04/22 11:00:44;;;;;;;5.03;1.40;;;21.30;40.30;;;;;;5034932;28;20025;-51
2021/04/22 11:03:38;;;;;;;5.15;1.60;;;21.30;40.30;;;;;;5034781;28;20021;-48
2021/04/22 11:06:10;;;;;;;2.78;1.17;;;21.30;40.30;;;;;;5034465;28;20069;-45
2021/04/22 11:09:11;;;;;;;3.00;1.50;;;21.30;40.30;;;;;;5017501;28;20017;-45
2021/04/22 11:11:37;;;;;;;1.90;0.95;;;21.40;40.40;;;;;;5035115;28;20306;-44
2021/04/22 11:14:16;;;;;;;4.03;1.20;;;21.40;40.50;;;;;;5034866;28;20022;-49
2021/04/22 11:16:47;;;;;;;2.17;1.10;;;21.40;40.30;;;;;;5034441;28;20050;-47
2021/04/22 11:19:21;;;;;;;3.20;1.02;;;21.40;40.50;;;;;;5034321;28;20463;-48
2021/04/22 11:21:53;;;;;;;2.05;0.90;;;21.40;40.70;;;;;;5034462;28;20022;-46
2021/04/22 11:24:39;;;;;;;3.65;1.20;;;21.40;40.70;;;;;;5034506;28;20053;-48
2021/04/22 11:27:14;;;;;;;1.70;1.00;;;21.40;40.60;;;;;;5034391;28;20029;-47
2021/04/22 11:29:57;;;;;;;2.80;1.10;;;21.40;40.50;;;;;;5034981;28;20048;-47
2021/04/22 11:32:52;;;;;;;3.03;1.40;;;21.40;40.40;;;;;;5037503;28;20057;-44
2021/04/22 11:35:21;;;;;;;2.40;1.20;;;21.40;40.50;;;;;;5021115;28;20048;-50
2021/04/22 11:37:49;;;;;;;2.00;0.70;;;21.40;40.50;;;;;;5038329;28;20359;-46
2021/04/22 11:40:19;;;;;;;2.00;0.88;;;21.40;40.40;;;;;;5038072;28;20022;-46
2021/04/22 11:42:47;;;;;;;1.73;0.60;;;21.40;40.50;;;;;;5038322;28;20057;-48
2021/04/22 11:45:19;;;;;;;2.22;0.85;;;21.40;40.50;;;;;;5038375;28;20506;-49
2021/04/22 11:47:52;;;;;;;5.32;1.02;;;21.50;40.40;;;;;;5038247;28;20060;-45
2021/04/22 11:50:22;;;;;;;3.03;1.23;;;21.50;40.50;;;;;;5038053;28;20022;-46
2021/04/22 11:52:55;;;;;;;4.82;1.20;;;21.50;40.30;;;;;;5038214;28;20034;-48
2021/04/22 11:55:30;;;;;;;1.23;0.68;;;21.50;40.30;;;;;;5038120;28;20092;-46
2021/04/22 11:58:04;;;;;;;1.40;0.95;;;21.50;40.30;;;;;;5037994;28;20029;-46
2021/04/22 12:00:35;;;;;;;1.80;1.00;;;21.50;40.40;;;;;;5038396;28;20035;-48
2021/04/22 12:03:01;;;;;;;1.15;0.70;;;21.50;40.40;;;;;;5037754;28;20087;-47
2021/04/22 12:05:26;;;;;;;2.10;0.90;;;21.50;40.40;;;;;;5037734;28;20029;-49
2021/04/22 12:07:55;;;;;;;2.40;1.10;;;21.50;40.30;;;;;;5037866;28;20060;-46
2021/04/22 12:10:21;;;;;;;1.92;0.70;;;21.50;40.30;;;;;;5038245;28;20447;-46
2021/04/22 12:12:47;;;;;;;2.67;0.93;;;21.50;40.30;;;;;;5038087;28;20029;-46
2021/04/22 12:15:13;;;;;;;2.47;0.70;;;21.50;41.00;;;;;;5037859;28;20026;-45
2021/04/22 12:17:39;;;;;;;1.77;0.80;;;21.50;40.40;;;;;;5037798;28;20029;-48
2021/04/22 12:20:08;;;;;;;4.43;1.10;;;21.50;40.30;;;;;;5037501;28;20035;-48
2021/04/22 12:22:37;;;;;;;1.98;0.55;;;21.50;40.30;;;;;;5038136;28;20111;-49
2021/04/22 12:25:11;;;;;;;1.55;0.80;;;21.60;40.30;;;;;;5036988;28;20103;-48
2021/04/22 12:27:42;;;;;;;2.03;1.00;;;21.60;40.20;;;;;;5037699;28;20044;-48
2021/04/22 12:30:20;;;;;;;2.42;1.00;;;21.50;39.70;;;;;;5037536;28;20025;-43
2021/04/22 12:32:58;;;;;;;1.23;0.68;;;21.50;39.30;;;;;;5037411;28;20091;-45
2021/04/22 12:35:28;;;;;;;1.95;0.95;;;21.50;38.80;;;;;;5037908;28;20108;-47
2021/04/22 12:37:55;;;;;;;2.15;0.90;;;21.50;38.20;;;;;;5037336;28;20029;-47
2021/04/22 12:40:23;;;;;;;3.40;1.20;;;21.50;37.80;;;;;;5037322;28;20415;-45
2021/04/22 12:42:49;;;;;;;4.22;1.05;;;21.40;37.60;;;;;;5036241;28;20313;-44
2021/04/22 12:45:16;;;;;;;1.88;0.90;;;21.40;37.30;;;;;;5037069;28;20048;-47
2021/04/22 12:47:45;;;;;;;2.22;1.02;;;21.40;37.10;;;;;;5037354;28;20018;-47